createdAt,value
2023-05-08T00:04:35.201Z,7.90
2023-05-08T00:11:53.782Z,8.20
2023-05-08T00:19:13.643Z,8.25
2023-05-08T00:26:31.950Z,8.25
2023-05-08T00:33:50.200Z,9.25
2023-05-08T00:41:10.099Z,9.13
2023-05-08T00:48:30.597Z,8.50
2023-05-08T00:55:49.448Z,8.75
2023-05-08T01:03:10.722Z,8.43
2023-05-08T01:10:34.542Z,8.07
2023-05-08T01:18:02.097Z,7.93
2023-05-08T01:35:02.677Z,7.35
2023-05-08T01:42:25.678Z,6.95
2023-05-08T01:49:46.624Z,7.10
2023-05-08T02:06:04.386Z,6.88
2023-05-08T02:13:23.804Z,6.60
2023-05-08T02:20:42.522Z,7.93
2023-05-08T02:28:03.090Z,7.15
2023-05-08T02:35:21.901Z,7.32
2023-05-08T02:42:40.430Z,6.43
2023-05-08T02:50:10.647Z,6.50
2023-05-08T02:57:35.423Z,6.80
2023-05-08T03:04:58.076Z,7.30
2023-05-08T03:12:23.045Z,7.33
2023-05-08T03:19:43.791Z,7.60
2023-05-08T03:36:05.371Z,7.18
2023-05-08T03:43:24.563Z,6.65
2023-05-08T03:50:43.355Z,6.20
2023-05-08T03:58:07.392Z,7.40
2023-05-08T04:05:28.708Z,8.07
2023-05-08T04:12:53.304Z,7.28
2023-05-08T04:20:17.079Z,7.15
2023-05-08T04:27:37.325Z,6.97
2023-05-08T04:34:56.402Z,7.28
2023-05-08T04:42:16.604Z,5.95
2023-05-08T04:49:35.435Z,5.78
2023-05-08T05:06:19.273Z,5.43
2023-05-08T05:13:37.940Z,5.80
2023-05-08T05:20:59.319Z,5.75
2023-05-08T05:28:20.925Z,5.60
2023-05-08T05:35:39.387Z,5.13
2023-05-08T05:42:57.904Z,6.00
2023-05-08T05:50:19.511Z,5.82
2023-05-08T05:57:38.697Z,5.18
2023-05-08T06:04:57.213Z,5.72
2023-05-08T06:12:18.359Z,5.32
2023-05-08T06:19:37.009Z,5.57
2023-05-08T06:36:06.410Z,5.30
2023-05-08T06:43:24.814Z,4.90
2023-05-08T06:50:43.478Z,5.88
2023-05-08T06:58:03.129Z,5.70
2023-05-08T07:05:21.908Z,4.55
2023-05-08T07:12:41.112Z,4.72
2023-05-08T07:20:01.559Z,3.88
2023-05-08T07:27:20.529Z,5.95
2023-05-08T07:34:38.752Z,3.60
2023-05-08T07:41:58.393Z,3.90
2023-05-08T07:49:16.660Z,4.03
2023-05-08T08:06:10.212Z,4.13
2023-05-08T08:13:28.601Z,3.45
2023-05-08T08:20:47.489Z,3.50
2023-05-08T08:28:07.595Z,3.72
2023-05-08T08:35:29.463Z,4.03
2023-05-08T08:42:48.576Z,3.45
2023-05-08T08:50:12.045Z,2.97
2023-05-08T08:57:34.148Z,3.30
2023-05-08T09:04:52.441Z,3.33
2023-05-08T09:12:12.312Z,3.42
2023-05-08T09:19:30.650Z,4.50
2023-05-08T09:36:26.888Z,4.47
2023-05-08T09:43:46.594Z,4.30
2023-05-08T09:51:08.921Z,4.53
2023-05-08T09:58:39.210Z,4.55
2023-05-08T10:06:13.984Z,4.70
2023-05-08T10:13:33.759Z,4.85
2023-05-08T10:20:52.395Z,5.20
2023-05-08T10:28:17.769Z,5.10
2023-05-08T10:35:38.487Z,4.90
2023-05-08T10:42:58.758Z,5.20
2023-05-08T10:50:27.538Z,5.20
2023-05-08T10:58:06.485Z,4.82
2023-05-08T11:05:25.162Z,4.38
2023-05-08T11:12:50.531Z,4.50
2023-05-08T11:20:11.140Z,4.80
2023-05-08T11:27:40.003Z,4.40
2023-05-08T11:34:58.658Z,4.25
2023-05-08T11:51:39.252Z,4.07
2023-05-08T11:59:04.964Z,4.20
2023-05-08T12:06:24.366Z,4.40
2023-05-08T12:13:44.310Z,3.53
2023-05-08T12:21:05.007Z,3.30
2023-05-08T12:28:23.511Z,3.85
2023-05-08T12:35:43.476Z,3.38
2023-05-08T12:43:02.908Z,3.60
2023-05-08T12:50:23.880Z,3.13
2023-05-08T12:57:52.233Z,3.42
2023-05-08T13:05:21.685Z,3.17
2023-05-08T13:21:39.303Z,3.00
2023-05-08T13:29:03.831Z,2.88
2023-05-08T13:36:29.016Z,3.33
2023-05-08T13:43:49.559Z,3.25
2023-05-08T13:51:08.528Z,2.85
2023-05-08T13:58:40.804Z,2.95
2023-05-08T14:06:01.451Z,2.95
2023-05-08T14:13:25.782Z,2.85
2023-05-08T14:30:13.319Z,3.00
2023-05-08T14:37:33.906Z,3.00
2023-05-08T14:44:52.796Z,2.58
2023-05-08T14:52:11.510Z,2.70
2023-05-08T14:59:31.730Z,3.90
2023-05-08T15:06:50.660Z,2.08
2023-05-08T15:14:09.191Z,2.47
2023-05-08T15:21:29.454Z,2.28
2023-05-08T15:28:48.261Z,2.35
2023-05-08T15:36:33.281Z,2.42
2023-05-08T15:43:57.711Z,2.05
2023-05-08T15:51:22.445Z,2.20
2023-05-08T15:58:48.705Z,2.30
2023-05-08T16:06:08.436Z,2.70
2023-05-08T16:13:27.129Z,1.77
2023-05-08T16:20:45.469Z,2.10
2023-05-08T16:28:05.179Z,2.03
2023-05-08T16:35:25.290Z,2.58
2023-05-08T16:42:43.933Z,2.45
2023-05-08T16:50:04.623Z,2.28
2023-05-08T16:57:23.293Z,2.20
2023-05-08T17:04:42.337Z,2.08
2023-05-08T17:12:02.815Z,2.40
2023-05-08T17:19:21.622Z,2.70
2023-05-08T17:26:40.180Z,2.15
2023-05-08T17:34:02.676Z,2.28
2023-05-08T17:41:22.119Z,2.28
2023-05-08T17:48:40.482Z,2.80
2023-05-08T17:56:00.855Z,2.38
2023-05-08T18:03:19.885Z,2.47
2023-05-08T18:10:43.099Z,2.30
2023-05-08T18:18:11.500Z,2.53
2023-05-08T18:25:33.851Z,2.63
2023-05-08T18:32:53.425Z,2.67
2023-05-08T18:40:14.653Z,2.70
2023-05-08T18:47:35.415Z,3.13
2023-05-08T18:54:55.850Z,2.92
2023-05-08T19:02:45.511Z,3.05
2023-05-08T19:10:35.469Z,3.13
2023-05-08T19:18:07.333Z,3.67
2023-05-08T19:25:27.946Z,4.28
2023-05-08T19:33:57.493Z,4.20
2023-05-08T19:50:34.507Z,4.20
2023-05-08T19:59:14.067Z,7.13
2023-05-08T20:06:49.430Z,4.00
2023-05-08T20:51:32.502Z,3.92
2023-05-08T21:18:07.670Z,4.15
2023-05-08T21:53:43.557Z,3.63
2023-05-08T22:09:58.812Z,4.22
2023-05-08T22:26:10.791Z,4.75
2023-05-08T22:33:41.423Z,4.57
2023-05-08T22:41:00.925Z,5.32
2023-05-08T22:48:19.558Z,6.45
2023-05-08T22:55:39.620Z,6.70
2023-05-08T23:02:58.240Z,7.47
2023-05-08T23:10:16.829Z,7.03
2023-05-08T23:17:36.796Z,6.63
2023-05-08T23:24:55.505Z,6.45
2023-05-08T23:32:14.386Z,6.45
2023-05-08T23:39:37.934Z,6.22
2023-05-08T23:46:56.255Z,6.97
2023-05-08T23:54:14.960Z,7.55
